sensor_id;sensor_type;location;lat;lon;timestamp;temperature;humidity
2523;DHT22;1272;53.332;9.860;2023-03-23T00:01:21;10.70;99.90
2523;DHT22;1272;53.332;9.860;2023-03-23T00:03:49;10.60;99.90
2523;DHT22;1272;53.332;9.860;2023-03-23T00:06:16;10.60;99.90
2523;DHT22;1272;53.332;9.860;2023-03-23T00:08:47;10.60;99.90
2523;DHT22;1272;53.332;9.860;2023-03-23T00:11:19;10.60;99.90
2523;DHT22;1272;53.332;9.860;2023-03-23T00:13:47;10.50;99.90
2523;DHT22;1272;53.332;9.860;2023-03-23T00:16:16;10.50;99.90
2523;DHT22;1272;53.332;9.860;2023-03-23T00:18:51;10.50;99.90
2523;DHT22;1272;53.332;9.860;2023-03-23T00:21:18;10.40;99.90
2523;DHT22;1272;53.332;9.860;2023-03-23T00:23:45;10.40;99.90
2523;DHT22;1272;53.332;9.860;2023-03-23T00:26:11;10.50;99.90
2523;DHT22;1272;53.332;9.860;2023-03-23T00:28:38;10.40;99.90
2523;DHT22;1272;53.332;9.860;2023-03-23T00:31:06;10.50;99.90
2523;DHT22;1272;53.332;9.860;2023-03-23T00:33:35;10.40;99.90
2523;DHT22;1272;53.332;9.860;2023-03-23T00:36:04;10.40;99.90
2523;DHT22;1272;53.332;9.860;2023-03-23T00:38:31;10.40;99.90
2523;DHT22;1272;53.332;9.860;2023-03-23T00:40:57;10.40;99.90
2523;DHT22;1272;53.332;9.860;2023-03-23T00:43:23;10.40;99.90
2523;DHT22;1272;53.332;9.860;2023-03-23T00:45:54;10.40;99.90
2523;DHT22;1272;53.332;9.860;2023-03-23T00:48:21;10.40;99.90
2523;DHT22;1272;53.332;9.860;2023-03-23T00:50:48;10.40;99.90
2523;DHT22;1272;53.332;9.860;2023-03-23T00:53:15;10.40;99.90
2523;DHT22;1272;53.332;9.860;2023-03-23T00:55:42;10.40;99.90
2523;DHT22;1272;53.332;9.860;2023-03-23T00:58:08;10.50;99.90
2523;DHT22;1272;53.332;9.860;2023-03-23T01:00:35;10.40;99.90
2523;DHT22;1272;53.332;9.860;2023-03-23T01:03:01;10.50;99.90
2523;DHT22;1272;53.332;9.860;2023-03-23T01:05:26;10.50;99.90
2523;DHT22;1272;53.332;9.860;2023-03-23T01:07:58;10.50;99.90
2523;DHT22;1272;53.332;9.860;2023-03-23T01:10:24;10.40;99.90
2523;DHT22;1272;53.332;9.860;2023-03-23T01:12:52;10.40;99.90
2523;DHT22;1272;53.332;9.860;2023-03-23T01:15:18;10.40;99.90
2523;DHT22;1272;53.332;9.860;2023-03-23T01:17:44;10.40;99.90
2523;DHT22;1272;53.332;9.860;2023-03-23T01:20:13;10.40;99.90
2523;DHT22;1272;53.332;9.860;2023-03-23T01:22:40;10.40;99.90
2523;DHT22;1272;53.332;9.860;2023-03-23T01:25:07;10.40;99.90
2523;DHT22;1272;53.332;9.860;2023-03-23T01:27:33;10.40;99.90
2523;DHT22;1272;53.332;9.860;2023-03-23T01:29:59;10.30;99.90
2523;DHT22;1272;53.332;9.860;2023-03-23T01:32:25;10.30;99.90
2523;DHT22;1272;53.332;9.860;2023-03-23T01:34:51;10.30;99.90
2523;DHT22;1272;53.332;9.860;2023-03-23T01:37:16;10.30;99.90
2523;DHT22;1272;53.332;9.860;2023-03-23T01:39:43;10.30;99.90
2523;DHT22;1272;53.332;9.860;2023-03-23T01:42:12;10.40;99.90
2523;DHT22;1272;53.332;9.860;2023-03-23T01:47:04;10.30;99.90
2523;DHT22;1272;53.332;9.860;2023-03-23T01:49:33;10.30;99.90
2523;DHT22;1272;53.332;9.860;2023-03-23T01:52:03;10.30;99.90
2523;DHT22;1272;53.332;9.860;2023-03-23T01:54:30;10.40;99.90
2523;DHT22;1272;53.332;9.860;2023-03-23T01:57:05;10.40;99.90
2523;DHT22;1272;53.332;9.860;2023-03-23T01:59:33;10.40;99.90
2523;DHT22;1272;53.332;9.860;2023-03-23T02:02:01;10.40;99.90
2523;DHT22;1272;53.332;9.860;2023-03-23T02:04:28;10.40;99.90
2523;DHT22;1272;53.332;9.860;2023-03-23T02:06:56;10.40;99.90
2523;DHT22;1272;53.332;9.860;2023-03-23T02:09:25;10.40;99.90
2523;DHT22;1272;53.332;9.860;2023-03-23T02:11:52;10.50;99.90
2523;DHT22;1272;53.332;9.860;2023-03-23T02:14:19;10.50;99.90
2523;DHT22;1272;53.332;9.860;2023-03-23T02:24:59;10.50;99.90
2523;DHT22;1272;53.332;9.860;2023-03-23T02:27:40;10.50;99.90
2523;DHT22;1272;53.332;9.860;2023-03-23T02:38:22;10.60;99.90
2523;DHT22;1272;53.332;9.860;2023-03-23T02:40:53;10.50;99.90
2523;DHT22;1272;53.332;9.860;2023-03-23T02:43:22;10.50;99.90
2523;DHT22;1272;53.332;9.860;2023-03-23T02:45:50;10.50;99.90
2523;DHT22;1272;53.332;9.860;2023-03-23T02:48:20;10.50;99.90
2523;DHT22;1272;53.332;9.860;2023-03-23T02:50:50;10.50;99.90
2523;DHT22;1272;53.332;9.860;2023-03-23T02:53:20;10.50;99.90
2523;DHT22;1272;53.332;9.860;2023-03-23T02:55:47;10.50;99.90
2523;DHT22;1272;53.332;9.860;2023-03-23T02:58:14;10.60;99.90
2523;DHT22;1272;53.332;9.860;2023-03-23T03:00:40;10.60;99.90
2523;DHT22;1272;53.332;9.860;2023-03-23T03:03:12;10.60;99.90
2523;DHT22;1272;53.332;9.860;2023-03-23T03:08:28;10.50;99.90
2523;DHT22;1272;53.332;9.860;2023-03-23T03:11:16;10.50;99.90
2523;DHT22;1272;53.332;9.860;2023-03-23T03:13:50;10.50;99.90
2523;DHT22;1272;53.332;9.860;2023-03-23T03:18:57;10.50;99.90
2523;DHT22;1272;53.332;9.860;2023-03-23T03:21:27;10.50;99.90
2523;DHT22;1272;53.332;9.860;2023-03-23T03:23:56;10.50;99.90
2523;DHT22;1272;53.332;9.860;2023-03-23T03:26:24;10.50;99.90
2523;DHT22;1272;53.332;9.860;2023-03-23T03:28:52;10.50;99.90
2523;DHT22;1272;53.332;9.860;2023-03-23T03:31:22;10.50;99.90
2523;DHT22;1272;53.332;9.860;2023-03-23T03:33:50;10.40;99.90
2523;DHT22;1272;53.332;9.860;2023-03-23T03:36:22;10.50;99.90
2523;DHT22;1272;53.332;9.860;2023-03-23T03:38:50;10.50;99.90
2523;DHT22;1272;53.332;9.860;2023-03-23T03:41:18;10.50;99.90
2523;DHT22;1272;53.332;9.860;2023-03-23T03:43:43;10.50;99.90
2523;DHT22;1272;53.332;9.860;2023-03-23T03:46:09;10.50;99.90
2523;DHT22;1272;53.332;9.860;2023-03-23T03:48:36;10.50;99.90
2523;DHT22;1272;53.332;9.860;2023-03-23T03:51:01;10.50;99.90
2523;DHT22;1272;53.332;9.860;2023-03-23T03:53:28;10.50;99.90
2523;DHT22;1272;53.332;9.860;2023-03-23T03:55:54;10.50;99.90
2523;DHT22;1272;53.332;9.860;2023-03-23T03:58:26;10.50;99.90
2523;DHT22;1272;53.332;9.860;2023-03-23T04:00:58;10.40;99.90
2523;DHT22;1272;53.332;9.860;2023-03-23T04:03:24;10.50;99.90
2523;DHT22;1272;53.332;9.860;2023-03-23T04:05:51;10.50;99.90
2523;DHT22;1272;53.332;9.860;2023-03-23T04:08:16;10.50;99.90
2523;DHT22;1272;53.332;9.860;2023-03-23T04:10:43;10.50;99.90
2523;DHT22;1272;53.332;9.860;2023-03-23T04:13:09;10.50;99.90
2523;DHT22;1272;53.332;9.860;2023-03-23T04:15:35;10.50;99.90
2523;DHT22;1272;53.332;9.860;2023-03-23T04:18:01;10.50;99.90
2523;DHT22;1272;53.332;9.860;2023-03-23T04:20:26;10.50;99.90
2523;DHT22;1272;53.332;9.860;2023-03-23T04:22:52;10.50;99.90
2523;DHT22;1272;53.332;9.860;2023-03-23T04:25:20;10.50;99.90
2523;DHT22;1272;53.332;9.860;2023-03-23T04:27:50;10.40;99.90
2523;DHT22;1272;53.332;9.860;2023-03-23T04:30:24;10.40;99.90
2523;DHT22;1272;53.332;9.860;2023-03-23T04:32:51;10.50;99.90
2523;DHT22;1272;53.332;9.860;2023-03-23T04:35:22;10.40;99.90
2523;DHT22;1272;53.332;9.860;2023-03-23T04:37:48;10.50;99.90
2523;DHT22;1272;53.332;9.860;2023-03-23T04:40:16;10.50;99.90
2523;DHT22;1272;53.332;9.860;2023-03-23T04:42:43;10.50;99.90
2523;DHT22;1272;53.332;9.860;2023-03-23T04:45:17;10.50;99.90
2523;DHT22;1272;53.332;9.860;2023-03-23T04:47:47;10.50;99.90
2523;DHT22;1272;53.332;9.860;2023-03-23T04:50:21;10.50;99.90
2523;DHT22;1272;53.332;9.860;2023-03-23T04:52:49;10.50;99.90
2523;DHT22;1272;53.332;9.860;2023-03-23T04:55:17;10.50;99.90
2523;DHT22;1272;53.332;9.860;2023-03-23T04:57:43;10.60;99.90
2523;DHT22;1272;53.332;9.860;2023-03-23T05:00:10;10.50;99.90
2523;DHT22;1272;53.332;9.860;2023-03-23T05:02:43;10.50;99.90
2523;DHT22;1272;53.332;9.860;2023-03-23T05:05:11;10.50;99.90
2523;DHT22;1272;53.332;9.860;2023-03-23T05:07:40;10.50;99.90
2523;DHT22;1272;53.332;9.860;2023-03-23T05:10:08;10.50;99.90
2523;DHT22;1272;53.332;9.860;2023-03-23T05:12:35;10.50;99.90
2523;DHT22;1272;53.332;9.860;2023-03-23T05:15:01;10.50;99.90
2523;DHT22;1272;53.332;9.860;2023-03-23T05:17:27;10.50;99.90
2523;DHT22;1272;53.332;9.860;2023-03-23T05:19:53;10.50;99.90
2523;DHT22;1272;53.332;9.860;2023-03-23T05:22:19;10.50;99.90
2523;DHT22;1272;53.332;9.860;2023-03-23T05:24:47;10.50;99.90
2523;DHT22;1272;53.332;9.860;2023-03-23T05:27:13;10.50;99.90
2523;DHT22;1272;53.332;9.860;2023-03-23T05:29:40;10.50;99.90
2523;DHT22;1272;53.332;9.860;2023-03-23T05:32:09;10.50;99.90
2523;DHT22;1272;53.332;9.860;2023-03-23T05:34:36;10.50;99.90
2523;DHT22;1272;53.332;9.860;2023-03-23T05:37:02;10.50;99.90
2523;DHT22;1272;53.332;9.860;2023-03-23T05:39:30;10.50;99.90
2523;DHT22;1272;53.332;9.860;2023-03-23T05:41:56;10.60;99.90
2523;DHT22;1272;53.332;9.860;2023-03-23T05:44:23;10.50;99.90
2523;DHT22;1272;53.332;9.860;2023-03-23T05:46:48;10.50;99.90
2523;DHT22;1272;53.332;9.860;2023-03-23T05:49:15;10.50;99.90
2523;DHT22;1272;53.332;9.860;2023-03-23T05:51:42;10.50;99.90
2523;DHT22;1272;53.332;9.860;2023-03-23T05:54:09;10.60;99.90
2523;DHT22;1272;53.332;9.860;2023-03-23T05:56:36;10.50;99.90
2523;DHT22;1272;53.332;9.860;2023-03-23T05:59:02;10.60;99.90
2523;DHT22;1272;53.332;9.860;2023-03-23T06:01:28;10.50;99.90
2523;DHT22;1272;53.332;9.860;2023-03-23T06:03:54;10.50;99.90
2523;DHT22;1272;53.332;9.860;2023-03-23T06:06:27;10.50;99.90
2523;DHT22;1272;53.332;9.860;2023-03-23T06:08:55;10.60;99.90
2523;DHT22;1272;53.332;9.860;2023-03-23T06:11:21;10.50;99.90
2523;DHT22;1272;53.332;9.860;2023-03-23T06:13:47;10.50;99.90
2523;DHT22;1272;53.332;9.860;2023-03-23T06:16:13;10.50;99.90
2523;DHT22;1272;53.332;9.860;2023-03-23T06:18:40;10.50;99.90
2523;DHT22;1272;53.332;9.860;2023-03-23T06:21:07;10.50;99.90
2523;DHT22;1272;53.332;9.860;2023-03-23T06:23:34;10.60;99.90
2523;DHT22;1272;53.332;9.860;2023-03-23T06:26:02;10.60;99.90
2523;DHT22;1272;53.332;9.860;2023-03-23T06:28:29;10.50;99.90
2523;DHT22;1272;53.332;9.860;2023-03-23T06:31:02;10.50;99.90
2523;DHT22;1272;53.332;9.860;2023-03-23T06:33:34;10.50;99.90
2523;DHT22;1272;53.332;9.860;2023-03-23T06:36:01;10.50;99.90
2523;DHT22;1272;53.332;9.860;2023-03-23T06:38:27;10.50;99.90
2523;DHT22;1272;53.332;9.860;2023-03-23T06:40:53;10.60;99.90
2523;DHT22;1272;53.332;9.860;2023-03-23T06:43:20;10.60;99.90
2523;DHT22;1272;53.332;9.860;2023-03-23T06:45:46;10.60;99.90
2523;DHT22;1272;53.332;9.860;2023-03-23T06:48:11;10.60;99.90
2523;DHT22;1272;53.332;9.860;2023-03-23T06:50:38;10.70;99.90
2523;DHT22;1272;53.332;9.860;2023-03-23T06:53:03;10.70;99.90
2523;DHT22;1272;53.332;9.860;2023-03-23T06:55:29;10.70;99.90
2523;DHT22;1272;53.332;9.860;2023-03-23T06:57:55;10.80;99.90
2523;DHT22;1272;53.332;9.860;2023-03-23T07:00:20;10.90;99.90
2523;DHT22;1272;53.332;9.860;2023-03-23T07:02:46;10.80;99.90
2523;DHT22;1272;53.332;9.860;2023-03-23T07:05:12;10.90;99.90
2523;DHT22;1272;53.332;9.860;2023-03-23T07:07:40;11.00;99.90
2523;DHT22;1272;53.332;9.860;2023-03-23T07:10:08;11.00;99.90
2523;DHT22;1272;53.332;9.860;2023-03-23T07:12:35;11.10;99.90
2523;DHT22;1272;53.332;9.860;2023-03-23T07:15:02;11.10;99.90
2523;DHT22;1272;53.332;9.860;2023-03-23T07:17:28;11.20;99.90
2523;DHT22;1272;53.332;9.860;2023-03-23T07:19:54;11.20;99.90
2523;DHT22;1272;53.332;9.860;2023-03-23T07:22:20;11.20;99.90
2523;DHT22;1272;53.332;9.860;2023-03-23T07:24:46;11.20;99.90
2523;DHT22;1272;53.332;9.860;2023-03-23T07:27:12;11.30;99.90
2523;DHT22;1272;53.332;9.860;2023-03-23T07:29:37;11.30;99.90
2523;DHT22;1272;53.332;9.860;2023-03-23T07:32:05;11.40;99.90
2523;DHT22;1272;53.332;9.860;2023-03-23T07:34:31;11.50;99.90
2523;DHT22;1272;53.332;9.860;2023-03-23T07:36:57;11.50;99.90
2523;DHT22;1272;53.332;9.860;2023-03-23T07:39:23;11.50;99.90
2523;DHT22;1272;53.332;9.860;2023-03-23T07:41:49;11.50;99.90
2523;DHT22;1272;53.332;9.860;2023-03-23T07:44:15;11.60;99.90
2523;DHT22;1272;53.332;9.860;2023-03-23T07:46:41;11.60;99.90
2523;DHT22;1272;53.332;9.860;2023-03-23T07:49:08;11.70;99.90
2523;DHT22;1272;53.332;9.860;2023-03-23T07:51:34;11.80;99.90
2523;DHT22;1272;53.332;9.860;2023-03-23T07:54:00;11.90;99.90
2523;DHT22;1272;53.332;9.860;2023-03-23T07:56:28;11.90;99.90
2523;DHT22;1272;53.332;9.860;2023-03-23T07:58:54;11.90;99.90
2523;DHT22;1272;53.332;9.860;2023-03-23T08:01:20;12.10;99.90
2523;DHT22;1272;53.332;9.860;2023-03-23T08:03:46;12.20;99.90
2523;DHT22;1272;53.332;9.860;2023-03-23T08:06:12;12.20;99.90
2523;DHT22;1272;53.332;9.860;2023-03-23T08:08:38;12.30;99.90
2523;DHT22;1272;53.332;9.860;2023-03-23T08:11:06;12.40;99.90
2523;DHT22;1272;53.332;9.860;2023-03-23T08:13:32;12.40;99.90
2523;DHT22;1272;53.332;9.860;2023-03-23T08:15:59;12.40;99.90
2523;DHT22;1272;53.332;9.860;2023-03-23T08:18:25;12.50;99.90
2523;DHT22;1272;53.332;9.860;2023-03-23T08:20:52;12.50;99.90
2523;DHT22;1272;53.332;9.860;2023-03-23T08:23:19;12.40;99.90
2523;DHT22;1272;53.332;9.860;2023-03-23T08:25:45;12.30;99.90
2523;DHT22;1272;53.332;9.860;2023-03-23T08:28:11;12.20;99.90
2523;DHT22;1272;53.332;9.860;2023-03-23T08:30:40;12.10;99.90
2523;DHT22;1272;53.332;9.860;2023-03-23T08:33:07;12.10;99.90
2523;DHT22;1272;53.332;9.860;2023-03-23T08:35:35;11.80;99.90
2523;DHT22;1272;53.332;9.860;2023-03-23T08:38:01;11.50;99.90
2523;DHT22;1272;53.332;9.860;2023-03-23T08:40:27;11.20;99.90
2523;DHT22;1272;53.332;9.860;2023-03-23T08:42:53;11.10;99.90
2523;DHT22;1272;53.332;9.860;2023-03-23T08:45:24;10.90;99.90
2523;DHT22;1272;53.332;9.860;2023-03-23T08:47:50;10.90;99.90
2523;DHT22;1272;53.332;9.860;2023-03-23T08:50:25;10.90;99.90
2523;DHT22;1272;53.332;9.860;2023-03-23T08:52:52;11.00;99.90
2523;DHT22;1272;53.332;9.860;2023-03-23T08:55:19;11.00;99.90
2523;DHT22;1272;53.332;9.860;2023-03-23T08:57:45;11.00;99.90
2523;DHT22;1272;53.332;9.860;2023-03-23T09:00:15;10.90;99.90
2523;DHT22;1272;53.332;9.860;2023-03-23T09:02:50;10.90;99.90
2523;DHT22;1272;53.332;9.860;2023-03-23T09:05:18;10.80;99.90
2523;DHT22;1272;53.332;9.860;2023-03-23T09:07:47;10.80;99.90
2523;DHT22;1272;53.332;9.860;2023-03-23T09:10:13;10.80;99.90
2523;DHT22;1272;53.332;9.860;2023-03-23T09:12:45;10.80;99.90
2523;DHT22;1272;53.332;9.860;2023-03-23T09:15:14;10.90;99.90
2523;DHT22;1272;53.332;9.860;2023-03-23T09:17:45;11.00;99.90
2523;DHT22;1272;53.332;9.860;2023-03-23T09:20:13;11.10;99.90
2523;DHT22;1272;53.332;9.860;2023-03-23T09:22:44;11.10;99.90
2523;DHT22;1272;53.332;9.860;2023-03-23T09:25:12;11.20;99.90
2523;DHT22;1272;53.332;9.860;2023-03-23T09:27:38;11.20;99.90
2523;DHT22;1272;53.332;9.860;2023-03-23T09:30:07;11.30;99.90
2523;DHT22;1272;53.332;9.860;2023-03-23T09:32:34;11.20;99.90
2523;DHT22;1272;53.332;9.860;2023-03-23T09:35:05;11.40;99.90
2523;DHT22;1272;53.332;9.860;2023-03-23T09:37:37;11.40;99.90
2523;DHT22;1272;53.332;9.860;2023-03-23T09:40:05;11.50;99.90
2523;DHT22;1272;53.332;9.860;2023-03-23T09:43:12;11.40;99.90
2523;DHT22;1272;53.332;9.860;2023-03-23T09:48:51;11.40;99.90
2523;DHT22;1272;53.332;9.860;2023-03-23T09:54:13;11.60;99.90
2523;DHT22;1272;53.332;9.860;2023-03-23T09:56:40;11.70;99.90
2523;DHT22;1272;53.332;9.860;2023-03-23T10:01:49;11.70;99.90
2523;DHT22;1272;53.332;9.860;2023-03-23T10:04:47;11.70;99.90
2523;DHT22;1272;53.332;9.860;2023-03-23T10:07:25;11.70;99.90
2523;DHT22;1272;53.332;9.860;2023-03-23T10:09:57;11.70;99.90
2523;DHT22;1272;53.332;9.860;2023-03-23T10:15:09;11.80;99.90
2523;DHT22;1272;53.332;9.860;2023-03-23T10:17:42;11.80;99.90
2523;DHT22;1272;53.332;9.860;2023-03-23T10:22:52;11.90;99.90
2523;DHT22;1272;53.332;9.860;2023-03-23T10:25:24;11.90;99.90
2523;DHT22;1272;53.332;9.860;2023-03-23T10:28:11;12.00;99.90
2523;DHT22;1272;53.332;9.860;2023-03-23T10:30:41;12.00;99.90
2523;DHT22;1272;53.332;9.860;2023-03-23T10:33:22;12.10;99.90
2523;DHT22;1272;53.332;9.860;2023-03-23T10:35:57;12.20;99.90
2523;DHT22;1272;53.332;9.860;2023-03-23T10:38:49;12.20;99.90
2523;DHT22;1272;53.332;9.860;2023-03-23T10:41:18;12.20;99.90
2523;DHT22;1272;53.332;9.860;2023-03-23T10:43:45;12.20;99.90
2523;DHT22;1272;53.332;9.860;2023-03-23T10:48:56;12.30;99.90
2523;DHT22;1272;53.332;9.860;2023-03-23T10:51:37;12.10;99.90
2523;DHT22;1272;53.332;9.860;2023-03-23T10:54:05;12.10;99.90
2523;DHT22;1272;53.332;9.860;2023-03-23T10:56:40;12.00;99.90
2523;DHT22;1272;53.332;9.860;2023-03-23T10:59:38;12.00;99.90
2523;DHT22;1272;53.332;9.860;2023-03-23T11:02:02;12.10;99.90
2523;DHT22;1272;53.332;9.860;2023-03-23T11:04:35;12.10;99.90
2523;DHT22;1272;53.332;9.860;2023-03-23T11:07:02;12.20;99.90
2523;DHT22;1272;53.332;9.860;2023-03-23T11:09:52;12.30;99.90
2523;DHT22;1272;53.332;9.860;2023-03-23T11:12:23;12.30;99.90
2523;DHT22;1272;53.332;9.860;2023-03-23T11:14:49;12.20;99.90
2523;DHT22;1272;53.332;9.860;2023-03-23T11:17:33;12.30;99.90
2523;DHT22;1272;53.332;9.860;2023-03-23T11:20:10;12.20;99.90
2523;DHT22;1272;53.332;9.860;2023-03-23T11:22:36;12.40;99.90
2523;DHT22;1272;53.332;9.860;2023-03-23T11:25:04;12.50;99.90
2523;DHT22;1272;53.332;9.860;2023-03-23T11:27:32;12.50;99.90
2523;DHT22;1272;53.332;9.860;2023-03-23T11:30:20;12.50;99.90
2523;DHT22;1272;53.332;9.860;2023-03-23T11:32:47;12.40;99.90
2523;DHT22;1272;53.332;9.860;2023-03-23T11:35:26;12.40;99.90
2523;DHT22;1272;53.332;9.860;2023-03-23T11:37:57;12.40;99.90
2523;DHT22;1272;53.332;9.860;2023-03-23T11:40:29;12.30;99.90
2523;DHT22;1272;53.332;9.860;2023-03-23T11:45:37;12.20;99.90
2523;DHT22;1272;53.332;9.860;2023-03-23T11:50:54;12.10;99.90
2523;DHT22;1272;53.332;9.860;2023-03-23T11:56:27;12.10;99.90
2523;DHT22;1272;53.332;9.860;2023-03-23T11:58:57;12.10;99.90
2523;DHT22;1272;53.332;9.860;2023-03-23T12:10:24;12.20;99.90
2523;DHT22;1272;53.332;9.860;2023-03-23T12:18:40;12.20;99.90
2523;DHT22;1272;53.332;9.860;2023-03-23T12:21:25;12.20;99.90
2523;DHT22;1272;53.332;9.860;2023-03-23T12:26:31;12.20;99.90
2523;DHT22;1272;53.332;9.860;2023-03-23T12:31:59;12.30;99.90
2523;DHT22;1272;53.332;9.860;2023-03-23T12:34:57;12.40;99.90
2523;DHT22;1272;53.332;9.860;2023-03-23T12:40:33;12.50;99.90
2523;DHT22;1272;53.332;9.860;2023-03-23T12:51:36;12.60;99.90
2523;DHT22;1272;53.332;9.860;2023-03-23T12:54:24;12.60;99.90
2523;DHT22;1272;53.332;9.860;2023-03-23T12:57:12;12.70;99.90
2523;DHT22;1272;53.332;9.860;2023-03-23T12:59:53;12.80;99.90
2523;DHT22;1272;53.332;9.860;2023-03-23T13:02:27;13.10;99.90
2523;DHT22;1272;53.332;9.860;2023-03-23T13:05:04;13.10;99.90
2523;DHT22;1272;53.332;9.860;2023-03-23T13:07:39;13.20;99.90
2523;DHT22;1272;53.332;9.860;2023-03-23T13:10:49;13.20;99.90
2523;DHT22;1272;53.332;9.860;2023-03-23T13:13:18;13.20;99.90
2523;DHT22;1272;53.332;9.860;2023-03-23T13:23:49;13.40;99.90
2523;DHT22;1272;53.332;9.860;2023-03-23T13:26:20;13.40;99.90
2523;DHT22;1272;53.332;9.860;2023-03-23T13:31:24;13.40;99.90
2523;DHT22;1272;53.332;9.860;2023-03-23T13:33:58;13.40;99.90
2523;DHT22;1272;53.332;9.860;2023-03-23T13:36:39;13.50;99.90
2523;DHT22;1272;53.332;9.860;2023-03-23T13:39:47;13.80;99.90
2523;DHT22;1272;53.332;9.860;2023-03-23T14:06:06;14.90;99.90
2523;DHT22;1272;53.332;9.860;2023-03-23T14:11:01;15.10;99.90
2523;DHT22;1272;53.332;9.860;2023-03-23T14:16:19;15.40;99.90
2523;DHT22;1272;53.332;9.860;2023-03-23T14:18:56;15.20;99.90
2523;DHT22;1272;53.332;9.860;2023-03-23T14:21:33;15.20;99.90
2523;DHT22;1272;53.332;9.860;2023-03-23T14:24:01;15.20;99.90
2523;DHT22;1272;53.332;9.860;2023-03-23T14:26:27;15.30;99.90
2523;DHT22;1272;53.332;9.860;2023-03-23T14:28:53;15.10;99.90
2523;DHT22;1272;53.332;9.860;2023-03-23T14:31:25;15.00;99.90
2523;DHT22;1272;53.332;9.860;2023-03-23T14:33:54;14.80;99.90
2523;DHT22;1272;53.332;9.860;2023-03-23T14:36:27;14.70;99.90
2523;DHT22;1272;53.332;9.860;2023-03-23T14:39:21;14.60;99.90
2523;DHT22;1272;53.332;9.860;2023-03-23T14:41:48;14.40;99.90
2523;DHT22;1272;53.332;9.860;2023-03-23T14:44:18;14.30;99.90
2523;DHT22;1272;53.332;9.860;2023-03-23T14:46:45;14.30;99.90
2523;DHT22;1272;53.332;9.860;2023-03-23T14:49:14;14.10;99.90
2523;DHT22;1272;53.332;9.860;2023-03-23T14:51:53;14.10;99.90
2523;DHT22;1272;53.332;9.860;2023-03-23T14:54:27;14.10;99.90
2523;DHT22;1272;53.332;9.860;2023-03-23T14:56:54;13.90;99.90
2523;DHT22;1272;53.332;9.860;2023-03-23T14:59:21;13.80;99.90
2523;DHT22;1272;53.332;9.860;2023-03-23T15:01:50;13.70;99.90
2523;DHT22;1272;53.332;9.860;2023-03-23T15:06:51;13.60;99.90
2523;DHT22;1272;53.332;9.860;2023-03-23T15:09:22;13.50;99.90
2523;DHT22;1272;53.332;9.860;2023-03-23T15:12:01;13.30;99.90
2523;DHT22;1272;53.332;9.860;2023-03-23T15:14:33;13.00;99.90
2523;DHT22;1272;53.332;9.860;2023-03-23T15:17:01;12.70;99.90
2523;DHT22;1272;53.332;9.860;2023-03-23T15:19:36;12.30;99.90
2523;DHT22;1272;53.332;9.860;2023-03-23T15:22:30;12.10;99.90
2523;DHT22;1272;53.332;9.860;2023-03-23T15:27:31;11.60;99.90
2523;DHT22;1272;53.332;9.860;2023-03-23T15:30:00;11.50;99.90
2523;DHT22;1272;53.332;9.860;2023-03-23T15:32:41;11.70;99.90
2523;DHT22;1272;53.332;9.860;2023-03-23T15:35:34;12.00;99.90
2523;DHT22;1272;53.332;9.860;2023-03-23T15:38:03;12.40;99.90
2523;DHT22;1272;53.332;9.860;2023-03-23T15:40:35;12.60;99.90
2523;DHT22;1272;53.332;9.860;2023-03-23T15:43:24;12.80;99.90
2523;DHT22;1272;53.332;9.860;2023-03-23T15:48:53;13.10;99.90
2523;DHT22;1272;53.332;9.860;2023-03-23T15:51:25;12.90;99.90
2523;DHT22;1272;53.332;9.860;2023-03-23T15:53:53;12.70;99.90
2523;DHT22;1272;53.332;9.860;2023-03-23T15:56:19;12.60;99.90
2523;DHT22;1272;53.332;9.860;2023-03-23T15:58:45;12.70;99.90
2523;DHT22;1272;53.332;9.860;2023-03-23T16:01:28;12.80;99.90
2523;DHT22;1272;53.332;9.860;2023-03-23T16:06:24;12.90;99.90
2523;DHT22;1272;53.332;9.860;2023-03-23T16:08:51;12.80;99.90
2523;DHT22;1272;53.332;9.860;2023-03-23T16:11:18;12.80;99.90
2523;DHT22;1272;53.332;9.860;2023-03-23T16:13:44;12.70;99.90
2523;DHT22;1272;53.332;9.860;2023-03-23T16:16:16;12.60;99.90
2523;DHT22;1272;53.332;9.860;2023-03-23T16:18:42;12.50;99.90
2523;DHT22;1272;53.332;9.860;2023-03-23T16:21:08;12.50;99.90
2523;DHT22;1272;53.332;9.860;2023-03-23T16:23:34;12.50;99.90
2523;DHT22;1272;53.332;9.860;2023-03-23T16:25:59;12.50;99.90
2523;DHT22;1272;53.332;9.860;2023-03-23T16:28:28;12.50;99.90
2523;DHT22;1272;53.332;9.860;2023-03-23T16:30:57;12.50;99.90
2523;DHT22;1272;53.332;9.860;2023-03-23T16:33:22;12.50;99.90
2523;DHT22;1272;53.332;9.860;2023-03-23T16:35:48;12.40;99.90
2523;DHT22;1272;53.332;9.860;2023-03-23T16:38:15;12.40;99.90
2523;DHT22;1272;53.332;9.860;2023-03-23T16:40:42;12.40;99.90
2523;DHT22;1272;53.332;9.860;2023-03-23T16:43:08;12.50;99.90
2523;DHT22;1272;53.332;9.860;2023-03-23T16:45:35;12.50;99.90
2523;DHT22;1272;53.332;9.860;2023-03-23T16:48:00;12.50;99.90
2523;DHT22;1272;53.332;9.860;2023-03-23T16:50:28;12.40;99.90
2523;DHT22;1272;53.332;9.860;2023-03-23T16:52:54;12.30;99.90
2523;DHT22;1272;53.332;9.860;2023-03-23T16:55:20;12.20;99.90
2523;DHT22;1272;53.332;9.860;2023-03-23T16:57:46;12.10;99.90
2523;DHT22;1272;53.332;9.860;2023-03-23T17:00:14;12.10;99.90
2523;DHT22;1272;53.332;9.860;2023-03-23T17:02:42;12.00;99.90
2523;DHT22;1272;53.332;9.860;2023-03-23T17:05:12;12.00;99.90
2523;DHT22;1272;53.332;9.860;2023-03-23T17:07:39;12.00;99.90
2523;DHT22;1272;53.332;9.860;2023-03-23T17:10:06;11.90;99.90
2523;DHT22;1272;53.332;9.860;2023-03-23T17:12:33;11.90;99.90
2523;DHT22;1272;53.332;9.860;2023-03-23T17:14:59;11.90;99.90
2523;DHT22;1272;53.332;9.860;2023-03-23T17:17:25;11.80;99.90
2523;DHT22;1272;53.332;9.860;2023-03-23T17:19:50;11.80;99.90
2523;DHT22;1272;53.332;9.860;2023-03-23T17:22:16;11.80;99.90
2523;DHT22;1272;53.332;9.860;2023-03-23T17:24:42;11.70;99.90
2523;DHT22;1272;53.332;9.860;2023-03-23T17:27:08;11.70;99.90
2523;DHT22;1272;53.332;9.860;2023-03-23T17:29:34;11.60;99.90
2523;DHT22;1272;53.332;9.860;2023-03-23T17:32:00;11.50;99.90
2523;DHT22;1272;53.332;9.860;2023-03-23T17:34:26;11.50;99.90
2523;DHT22;1272;53.332;9.860;2023-03-23T17:36:51;11.40;99.90
2523;DHT22;1272;53.332;9.860;2023-03-23T17:39:17;11.30;99.90
2523;DHT22;1272;53.332;9.860;2023-03-23T17:41:43;11.30;99.90
2523;DHT22;1272;53.332;9.860;2023-03-23T17:44:08;11.20;99.90
2523;DHT22;1272;53.332;9.860;2023-03-23T17:46:34;11.10;99.90
2523;DHT22;1272;53.332;9.860;2023-03-23T17:49:00;11.10;99.90
2523;DHT22;1272;53.332;9.860;2023-03-23T17:51:25;11.00;99.90
2523;DHT22;1272;53.332;9.860;2023-03-23T17:53:51;10.90;99.90
2523;DHT22;1272;53.332;9.860;2023-03-23T17:56:17;10.90;99.90
2523;DHT22;1272;53.332;9.860;2023-03-23T17:58:43;10.80;99.90
2523;DHT22;1272;53.332;9.860;2023-03-23T18:01:09;10.70;99.90
2523;DHT22;1272;53.332;9.860;2023-03-23T18:03:38;10.70;99.90
2523;DHT22;1272;53.332;9.860;2023-03-23T18:06:05;10.70;99.90
2523;DHT22;1272;53.332;9.860;2023-03-23T18:08:33;10.70;99.90
2523;DHT22;1272;53.332;9.860;2023-03-23T18:11:00;10.70;99.90
2523;DHT22;1272;53.332;9.860;2023-03-23T18:13:27;10.80;99.90
2523;DHT22;1272;53.332;9.860;2023-03-23T18:15:54;10.70;99.90
2523;DHT22;1272;53.332;9.860;2023-03-23T18:18:21;10.70;99.90
2523;DHT22;1272;53.332;9.860;2023-03-23T18:20:52;10.70;99.90
2523;DHT22;1272;53.332;9.860;2023-03-23T18:23:18;10.70;99.90
2523;DHT22;1272;53.332;9.860;2023-03-23T18:25:44;10.70;99.90
2523;DHT22;1272;53.332;9.860;2023-03-23T18:28:10;10.70;99.90